sensor_id;sensor_type;location;lat;lon;timestamp;temperature;humidity
64226;DHT22;50545;56.064;26.178;2024-01-30T00:02:18;0.50;99.90
64226;DHT22;50545;56.064;26.178;2024-01-30T00:04:45;0.50;99.90
64226;DHT22;50545;56.064;26.178;2024-01-30T00:07:13;0.50;99.90
64226;DHT22;50545;56.064;26.178;2024-01-30T00:09:40;0.40;99.90
64226;DHT22;50545;56.064;26.178;2024-01-30T00:12:08;0.50;99.90
64226;DHT22;50545;56.064;26.178;2024-01-30T00:14:35;0.50;99.90
64226;DHT22;50545;56.064;26.178;2024-01-30T00:17:03;0.50;99.90
64226;DHT22;50545;56.064;26.178;2024-01-30T00:19:30;0.40;99.90
64226;DHT22;50545;56.064;26.178;2024-01-30T00:21:58;0.40;99.90
64226;DHT22;50545;56.064;26.178;2024-01-30T00:24:25;0.50;99.90
64226;DHT22;50545;56.064;26.178;2024-01-30T00:26:53;0.40;99.90
64226;DHT22;50545;56.064;26.178;2024-01-30T00:29:20;0.50;99.90
64226;DHT22;50545;56.064;26.178;2024-01-30T00:31:49;0.40;99.90
64226;DHT22;50545;56.064;26.178;2024-01-30T00:34:17;0.50;99.90
64226;DHT22;50545;56.064;26.178;2024-01-30T00:36:44;0.40;99.90
64226;DHT22;50545;56.064;26.178;2024-01-30T00:39:12;0.40;99.90
64226;DHT22;50545;56.064;26.178;2024-01-30T00:41:39;0.40;99.90
64226;DHT22;50545;56.064;26.178;2024-01-30T00:44:06;0.40;99.90
64226;DHT22;50545;56.064;26.178;2024-01-30T00:46:34;0.40;99.90
64226;DHT22;50545;56.064;26.178;2024-01-30T00:49:01;0.40;99.90
64226;DHT22;50545;56.064;26.178;2024-01-30T00:51:30;0.40;99.90
64226;DHT22;50545;56.064;26.178;2024-01-30T00:53:57;0.40;99.90
64226;DHT22;50545;56.064;26.178;2024-01-30T00:56:24;0.40;99.90
64226;DHT22;50545;56.064;26.178;2024-01-30T00:58:52;0.40;99.90
64226;DHT22;50545;56.064;26.178;2024-01-30T01:01:19;0.50;99.90
64226;DHT22;50545;56.064;26.178;2024-01-30T01:03:47;0.40;99.90
64226;DHT22;50545;56.064;26.178;2024-01-30T01:06:15;0.40;99.90
64226;DHT22;50545;56.064;26.178;2024-01-30T01:08:43;0.40;99.90
64226;DHT22;50545;56.064;26.178;2024-01-30T01:11:10;0.40;99.90
64226;DHT22;50545;56.064;26.178;2024-01-30T01:13:38;0.40;99.90
64226;DHT22;50545;56.064;26.178;2024-01-30T01:16:05;0.50;99.90
64226;DHT22;50545;56.064;26.178;2024-01-30T01:18:33;0.50;99.90
64226;DHT22;50545;56.064;26.178;2024-01-30T01:21:00;0.40;99.90
64226;DHT22;50545;56.064;26.178;2024-01-30T01:23:28;0.50;99.90
64226;DHT22;50545;56.064;26.178;2024-01-30T01:25:55;0.50;99.90
64226;DHT22;50545;56.064;26.178;2024-01-30T01:28:26;0.50;99.90
64226;DHT22;50545;56.064;26.178;2024-01-30T01:30:54;0.50;99.90
64226;DHT22;50545;56.064;26.178;2024-01-30T01:33:26;0.50;99.90
64226;DHT22;50545;56.064;26.178;2024-01-30T01:35:54;0.40;99.90
64226;DHT22;50545;56.064;26.178;2024-01-30T01:38:21;0.40;99.90
64226;DHT22;50545;56.064;26.178;2024-01-30T01:40:48;0.50;99.90
64226;DHT22;50545;56.064;26.178;2024-01-30T01:43:16;0.50;99.90
64226;DHT22;50545;56.064;26.178;2024-01-30T01:45:43;0.50;99.90
64226;DHT22;50545;56.064;26.178;2024-01-30T01:48:11;0.50;99.90
64226;DHT22;50545;56.064;26.178;2024-01-30T01:50:40;0.50;99.90
64226;DHT22;50545;56.064;26.178;2024-01-30T01:53:08;0.50;99.90
64226;DHT22;50545;56.064;26.178;2024-01-30T01:55:35;0.50;99.90
64226;DHT22;50545;56.064;26.178;2024-01-30T01:58:04;0.50;99.90
64226;DHT22;50545;56.064;26.178;2024-01-30T02:00:32;0.50;99.90
64226;DHT22;50545;56.064;26.178;2024-01-30T02:03:00;0.50;99.90
64226;DHT22;50545;56.064;26.178;2024-01-30T02:05:28;0.50;99.90
64226;DHT22;50545;56.064;26.178;2024-01-30T02:07:56;0.40;99.90
64226;DHT22;50545;56.064;26.178;2024-01-30T02:10:24;0.40;99.90
64226;DHT22;50545;56.064;26.178;2024-01-30T02:12:51;0.40;99.90
64226;DHT22;50545;56.064;26.178;2024-01-30T02:15:19;0.30;99.90
64226;DHT22;50545;56.064;26.178;2024-01-30T02:17:46;0.30;99.90
64226;DHT22;50545;56.064;26.178;2024-01-30T02:20:14;0.30;99.90
64226;DHT22;50545;56.064;26.178;2024-01-30T02:22:43;0.30;99.90
64226;DHT22;50545;56.064;26.178;2024-01-30T02:25:11;0.30;99.90
64226;DHT22;50545;56.064;26.178;2024-01-30T02:27:38;0.30;99.90
64226;DHT22;50545;56.064;26.178;2024-01-30T02:30:06;0.30;99.90
64226;DHT22;50545;56.064;26.178;2024-01-30T02:32:34;0.30;99.90
64226;DHT22;50545;56.064;26.178;2024-01-30T02:35:01;0.30;99.90
64226;DHT22;50545;56.064;26.178;2024-01-30T02:37:29;0.20;99.90
64226;DHT22;50545;56.064;26.178;2024-01-30T02:39:57;0.20;99.90
64226;DHT22;50545;56.064;26.178;2024-01-30T02:42:24;0.20;99.90
64226;DHT22;50545;56.064;26.178;2024-01-30T02:44:52;0.20;99.90
64226;DHT22;50545;56.064;26.178;2024-01-30T02:47:19;0.20;99.90
64226;DHT22;50545;56.064;26.178;2024-01-30T02:49:47;0.20;99.90
64226;DHT22;50545;56.064;26.178;2024-01-30T02:52:14;0.20;99.90
64226;DHT22;50545;56.064;26.178;2024-01-30T02:54:42;0.20;99.90
64226;DHT22;50545;56.064;26.178;2024-01-30T02:57:09;0.20;99.90
64226;DHT22;50545;56.064;26.178;2024-01-30T02:59:37;0.20;99.90
64226;DHT22;50545;56.064;26.178;2024-01-30T03:02:04;0.20;99.90
64226;DHT22;50545;56.064;26.178;2024-01-30T03:04:32;0.20;99.90
64226;DHT22;50545;56.064;26.178;2024-01-30T03:07:00;0.20;99.90
64226;DHT22;50545;56.064;26.178;2024-01-30T03:09:27;0.20;99.90
64226;DHT22;50545;56.064;26.178;2024-01-30T03:11:55;0.10;99.90
64226;DHT22;50545;56.064;26.178;2024-01-30T03:14:22;0.10;99.90
64226;DHT22;50545;56.064;26.178;2024-01-30T03:16:50;0.10;99.90
64226;DHT22;50545;56.064;26.178;2024-01-30T03:19:18;0.10;99.90
64226;DHT22;50545;56.064;26.178;2024-01-30T03:21:46;0.10;99.90
64226;DHT22;50545;56.064;26.178;2024-01-30T03:24:13;0.00;99.90
64226;DHT22;50545;56.064;26.178;2024-01-30T03:26:41;0.10;99.90
64226;DHT22;50545;56.064;26.178;2024-01-30T03:29:09;0.00;99.90
64226;DHT22;50545;56.064;26.178;2024-01-30T03:31:36;0.00;99.90
64226;DHT22;50545;56.064;26.178;2024-01-30T03:34:03;0.00;99.90
64226;DHT22;50545;56.064;26.178;2024-01-30T03:36:31;-0.10;99.90
64226;DHT22;50545;56.064;26.178;2024-01-30T03:39:01;-0.10;99.90
64226;DHT22;50545;56.064;26.178;2024-01-30T03:41:29;-0.10;99.90
64226;DHT22;50545;56.064;26.178;2024-01-30T03:43:57;-0.10;99.90
64226;DHT22;50545;56.064;26.178;2024-01-30T03:46:24;-0.10;99.90
64226;DHT22;50545;56.064;26.178;2024-01-30T03:48:52;-0.10;99.90
64226;DHT22;50545;56.064;26.178;2024-01-30T03:51:19;-0.10;99.90
64226;DHT22;50545;56.064;26.178;2024-01-30T03:53:47;-0.10;99.90
64226;DHT22;50545;56.064;26.178;2024-01-30T03:56:14;-0.10;99.90
64226;DHT22;50545;56.064;26.178;2024-01-30T03:58:42;-0.10;99.90
64226;DHT22;50545;56.064;26.178;2024-01-30T04:01:16;-0.20;99.90
64226;DHT22;50545;56.064;26.178;2024-01-30T04:03:44;-0.20;99.90
64226;DHT22;50545;56.064;26.178;2024-01-30T04:06:12;-0.20;99.90
64226;DHT22;50545;56.064;26.178;2024-01-30T04:08:40;-0.20;99.90
64226;DHT22;50545;56.064;26.178;2024-01-30T04:11:07;-0.20;99.90
64226;DHT22;50545;56.064;26.178;2024-01-30T04:13:35;-0.20;99.90
64226;DHT22;50545;56.064;26.178;2024-01-30T04:16:03;-0.20;99.90
64226;DHT22;50545;56.064;26.178;2024-01-30T04:18:31;-0.20;99.90
64226;DHT22;50545;56.064;26.178;2024-01-30T04:20:59;-0.30;99.90
64226;DHT22;50545;56.064;26.178;2024-01-30T04:23:27;-0.30;99.90
64226;DHT22;50545;56.064;26.178;2024-01-30T04:25:54;-0.30;99.90
64226;DHT22;50545;56.064;26.178;2024-01-30T04:28:21;-0.30;99.90
64226;DHT22;50545;56.064;26.178;2024-01-30T04:30:49;-0.30;99.90
64226;DHT22;50545;56.064;26.178;2024-01-30T04:33:16;-0.20;99.90
64226;DHT22;50545;56.064;26.178;2024-01-30T04:35:45;-0.20;99.90
64226;DHT22;50545;56.064;26.178;2024-01-30T04:38:12;-0.20;99.90
64226;DHT22;50545;56.064;26.178;2024-01-30T04:40:41;-0.20;99.90
64226;DHT22;50545;56.064;26.178;2024-01-30T04:43:09;-0.20;99.90
64226;DHT22;50545;56.064;26.178;2024-01-30T04:45:36;-0.20;99.90
64226;DHT22;50545;56.064;26.178;2024-01-30T04:48:04;-0.20;99.90
64226;DHT22;50545;56.064;26.178;2024-01-30T04:50:32;-0.10;99.90
64226;DHT22;50545;56.064;26.178;2024-01-30T04:52:59;-0.10;99.90
64226;DHT22;50545;56.064;26.178;2024-01-30T04:55:27;-0.20;99.90
64226;DHT22;50545;56.064;26.178;2024-01-30T04:57:55;-0.10;99.90
64226;DHT22;50545;56.064;26.178;2024-01-30T05:00:22;-0.10;99.90
64226;DHT22;50545;56.064;26.178;2024-01-30T05:02:50;-0.20;99.90
64226;DHT22;50545;56.064;26.178;2024-01-30T05:05:17;-0.20;99.90
64226;DHT22;50545;56.064;26.178;2024-01-30T05:07:45;-0.20;99.90
64226;DHT22;50545;56.064;26.178;2024-01-30T05:10:13;-0.20;99.90
64226;DHT22;50545;56.064;26.178;2024-01-30T05:12:40;-0.20;99.90
64226;DHT22;50545;56.064;26.178;2024-01-30T05:15:08;-0.20;99.90
64226;DHT22;50545;56.064;26.178;2024-01-30T05:17:36;-0.30;99.90
64226;DHT22;50545;56.064;26.178;2024-01-30T05:20:04;-0.20;99.90
64226;DHT22;50545;56.064;26.178;2024-01-30T05:22:32;-0.30;99.90
64226;DHT22;50545;56.064;26.178;2024-01-30T05:24:59;-0.30;99.90
64226;DHT22;50545;56.064;26.178;2024-01-30T05:27:27;-0.30;99.90
64226;DHT22;50545;56.064;26.178;2024-01-30T05:29:54;-0.30;99.90
64226;DHT22;50545;56.064;26.178;2024-01-30T05:32:22;-0.30;99.90
64226;DHT22;50545;56.064;26.178;2024-01-30T05:34:49;-0.30;99.90
64226;DHT22;50545;56.064;26.178;2024-01-30T05:37:17;-0.40;99.90
64226;DHT22;50545;56.064;26.178;2024-01-30T05:39:45;-0.40;99.90
64226;DHT22;50545;56.064;26.178;2024-01-30T05:42:13;-0.40;99.90
64226;DHT22;50545;56.064;26.178;2024-01-30T05:44:40;-0.40;99.90
64226;DHT22;50545;56.064;26.178;2024-01-30T05:47:07;-0.50;99.90
64226;DHT22;50545;56.064;26.178;2024-01-30T05:49:35;-0.50;99.90
64226;DHT22;50545;56.064;26.178;2024-01-30T05:52:03;-0.50;99.90
64226;DHT22;50545;56.064;26.178;2024-01-30T05:54:31;-0.50;99.90
64226;DHT22;50545;56.064;26.178;2024-01-30T05:56:58;-0.50;99.90
64226;DHT22;50545;56.064;26.178;2024-01-30T05:59:26;-0.50;99.90
64226;DHT22;50545;56.064;26.178;2024-01-30T06:01:53;-0.50;99.90
64226;DHT22;50545;56.064;26.178;2024-01-30T06:04:21;-0.50;99.90
64226;DHT22;50545;56.064;26.178;2024-01-30T06:06:48;-0.50;99.90
64226;DHT22;50545;56.064;26.178;2024-01-30T06:09:16;-0.50;99.90
64226;DHT22;50545;56.064;26.178;2024-01-30T06:11:43;-0.50;99.90
64226;DHT22;50545;56.064;26.178;2024-01-30T06:14:11;-0.50;99.90
64226;DHT22;50545;56.064;26.178;2024-01-30T06:16:39;-0.50;99.90
64226;DHT22;50545;56.064;26.178;2024-01-30T06:19:06;-0.50;99.90
64226;DHT22;50545;56.064;26.178;2024-01-30T06:21:33;-0.50;99.90
64226;DHT22;50545;56.064;26.178;2024-01-30T06:24:04;-0.50;99.90
64226;DHT22;50545;56.064;26.178;2024-01-30T06:26:31;-0.40;99.90
64226;DHT22;50545;56.064;26.178;2024-01-30T06:28:59;-0.40;99.90
64226;DHT22;50545;56.064;26.178;2024-01-30T06:31:26;-0.40;99.90
64226;DHT22;50545;56.064;26.178;2024-01-30T06:33:54;-0.40;99.90
64226;DHT22;50545;56.064;26.178;2024-01-30T06:36:22;-0.40;99.90
64226;DHT22;50545;56.064;26.178;2024-01-30T06:38:49;-0.30;99.90
64226;DHT22;50545;56.064;26.178;2024-01-30T06:41:17;-0.30;99.90
64226;DHT22;50545;56.064;26.178;2024-01-30T06:43:44;-0.20;99.90
64226;DHT22;50545;56.064;26.178;2024-01-30T06:46:12;-0.20;99.90
64226;DHT22;50545;56.064;26.178;2024-01-30T06:48:40;-0.20;99.90
64226;DHT22;50545;56.064;26.178;2024-01-30T06:51:07;-0.20;99.90
64226;DHT22;50545;56.064;26.178;2024-01-30T06:53:35;-0.20;99.90
64226;DHT22;50545;56.064;26.178;2024-01-30T06:56:02;-0.10;99.90
64226;DHT22;50545;56.064;26.178;2024-01-30T06:58:30;-0.10;99.90
64226;DHT22;50545;56.064;26.178;2024-01-30T07:00:58;-0.10;99.90
64226;DHT22;50545;56.064;26.178;2024-01-30T07:03:26;-0.10;99.90
64226;DHT22;50545;56.064;26.178;2024-01-30T07:05:53;0.00;99.90
64226;DHT22;50545;56.064;26.178;2024-01-30T07:08:21;0.00;99.90
64226;DHT22;50545;56.064;26.178;2024-01-30T07:10:49;0.00;99.90
64226;DHT22;50545;56.064;26.178;2024-01-30T07:13:17;0.00;99.90
64226;DHT22;50545;56.064;26.178;2024-01-30T07:15:44;0.10;99.90
64226;DHT22;50545;56.064;26.178;2024-01-30T07:18:12;0.10;99.90
64226;DHT22;50545;56.064;26.178;2024-01-30T07:20:40;0.10;99.90
64226;DHT22;50545;56.064;26.178;2024-01-30T07:23:13;0.10;99.90
64226;DHT22;50545;56.064;26.178;2024-01-30T07:25:46;0.10;99.90
64226;DHT22;50545;56.064;26.178;2024-01-30T07:28:17;0.10;99.90
64226;DHT22;50545;56.064;26.178;2024-01-30T07:30:45;0.20;99.90
64226;DHT22;50545;56.064;26.178;2024-01-30T07:33:13;0.20;99.90
64226;DHT22;50545;56.064;26.178;2024-01-30T07:35:41;0.20;99.90
64226;DHT22;50545;56.064;26.178;2024-01-30T07:38:08;0.20;99.90
64226;DHT22;50545;56.064;26.178;2024-01-30T07:40:36;0.30;99.90
64226;DHT22;50545;56.064;26.178;2024-01-30T07:43:03;0.30;99.90
64226;DHT22;50545;56.064;26.178;2024-01-30T07:45:31;0.30;99.90
64226;DHT22;50545;56.064;26.178;2024-01-30T07:48:04;0.30;99.90
64226;DHT22;50545;56.064;26.178;2024-01-30T07:50:32;0.40;99.90
64226;DHT22;50545;56.064;26.178;2024-01-30T07:53:00;0.40;99.90
64226;DHT22;50545;56.064;26.178;2024-01-30T07:55:28;0.40;99.90
64226;DHT22;50545;56.064;26.178;2024-01-30T07:57:56;0.40;99.90
64226;DHT22;50545;56.064;26.178;2024-01-30T08:00:24;0.50;99.90
64226;DHT22;50545;56.064;26.178;2024-01-30T08:02:51;0.50;99.90
64226;DHT22;50545;56.064;26.178;2024-01-30T08:05:22;0.50;99.90
64226;DHT22;50545;56.064;26.178;2024-01-30T08:07:51;0.60;99.90
64226;DHT22;50545;56.064;26.178;2024-01-30T08:10:20;0.60;99.90
64226;DHT22;50545;56.064;26.178;2024-01-30T08:12:48;0.60;99.90
64226;DHT22;50545;56.064;26.178;2024-01-30T08:15:16;0.60;99.90
64226;DHT22;50545;56.064;26.178;2024-01-30T08:17:43;0.60;99.90
64226;DHT22;50545;56.064;26.178;2024-01-30T08:20:12;0.70;99.90
64226;DHT22;50545;56.064;26.178;2024-01-30T08:22:40;0.70;99.90
64226;DHT22;50545;56.064;26.178;2024-01-30T08:25:08;0.70;99.90
64226;DHT22;50545;56.064;26.178;2024-01-30T08:27:37;0.70;99.90
64226;DHT22;50545;56.064;26.178;2024-01-30T08:30:09;0.70;99.90
64226;DHT22;50545;56.064;26.178;2024-01-30T08:32:36;0.70;99.90
64226;DHT22;50545;56.064;26.178;2024-01-30T08:35:04;0.80;99.90
64226;DHT22;50545;56.064;26.178;2024-01-30T08:37:32;0.80;99.90
64226;DHT22;50545;56.064;26.178;2024-01-30T08:40:00;0.80;99.90
64226;DHT22;50545;56.064;26.178;2024-01-30T08:42:29;0.90;99.90
64226;DHT22;50545;56.064;26.178;2024-01-30T08:44:56;0.90;99.90
64226;DHT22;50545;56.064;26.178;2024-01-30T08:47:24;1.00;99.90
64226;DHT22;50545;56.064;26.178;2024-01-30T08:49:52;1.00;99.90
64226;DHT22;50545;56.064;26.178;2024-01-30T08:52:19;1.00;99.90
64226;DHT22;50545;56.064;26.178;2024-01-30T08:54:47;1.10;99.90
64226;DHT22;50545;56.064;26.178;2024-01-30T08:57:14;1.10;99.90
64226;DHT22;50545;56.064;26.178;2024-01-30T08:59:42;1.20;99.90
64226;DHT22;50545;56.064;26.178;2024-01-30T09:02:13;1.30;99.90
64226;DHT22;50545;56.064;26.178;2024-01-30T09:04:43;1.30;99.90
64226;DHT22;50545;56.064;26.178;2024-01-30T09:07:11;1.40;99.90
64226;DHT22;50545;56.064;26.178;2024-01-30T09:09:41;1.40;99.90
64226;DHT22;50545;56.064;26.178;2024-01-30T09:12:09;1.50;99.90
64226;DHT22;50545;56.064;26.178;2024-01-30T09:14:39;1.50;99.90
64226;DHT22;50545;56.064;26.178;2024-01-30T09:17:08;1.50;99.90
64226;DHT22;50545;56.064;26.178;2024-01-30T09:19:35;1.60;99.90
64226;DHT22;50545;56.064;26.178;2024-01-30T09:22:04;1.60;99.90
64226;DHT22;50545;56.064;26.178;2024-01-30T09:24:31;1.70;99.90
64226;DHT22;50545;56.064;26.178;2024-01-30T09:26:58;1.70;99.90
64226;DHT22;50545;56.064;26.178;2024-01-30T09:29:26;1.70;99.90
64226;DHT22;50545;56.064;26.178;2024-01-30T09:31:54;1.70;99.90
64226;DHT22;50545;56.064;26.178;2024-01-30T09:34:21;1.70;99.90
64226;DHT22;50545;56.064;26.178;2024-01-30T09:36:49;1.70;99.90
64226;DHT22;50545;56.064;26.178;2024-01-30T09:39:17;1.70;99.90
64226;DHT22;50545;56.064;26.178;2024-01-30T09:44:58;1.70;99.90
64226;DHT22;50545;56.064;26.178;2024-01-30T09:47:26;1.60;99.90
64226;DHT22;50545;56.064;26.178;2024-01-30T09:49:54;1.60;99.90
64226;DHT22;50545;56.064;26.178;2024-01-30T09:52:23;1.60;99.90
64226;DHT22;50545;56.064;26.178;2024-01-30T09:54:51;1.50;99.90
64226;DHT22;50545;56.064;26.178;2024-01-30T09:57:20;1.50;99.90
64226;DHT22;50545;56.064;26.178;2024-01-30T09:59:48;1.60;99.90
64226;DHT22;50545;56.064;26.178;2024-01-30T10:02:15;1.60;99.90
64226;DHT22;50545;56.064;26.178;2024-01-30T10:04:43;1.70;99.90
64226;DHT22;50545;56.064;26.178;2024-01-30T10:07:11;1.70;99.90
64226;DHT22;50545;56.064;26.178;2024-01-30T10:09:40;1.80;99.90
64226;DHT22;50545;56.064;26.178;2024-01-30T10:12:08;1.80;99.90
64226;DHT22;50545;56.064;26.178;2024-01-30T10:14:39;1.80;99.90
64226;DHT22;50545;56.064;26.178;2024-01-30T10:17:11;1.80;99.90
64226;DHT22;50545;56.064;26.178;2024-01-30T10:19:50;1.90;99.90
64226;DHT22;50545;56.064;26.178;2024-01-30T10:22:19;2.00;99.90
64226;DHT22;50545;56.064;26.178;2024-01-30T10:24:48;2.10;99.90
64226;DHT22;50545;56.064;26.178;2024-01-30T10:27:16;2.10;99.90
64226;DHT22;50545;56.064;26.178;2024-01-30T10:29:43;2.20;99.90
64226;DHT22;50545;56.064;26.178;2024-01-30T10:32:10;2.20;99.90
64226;DHT22;50545;56.064;26.178;2024-01-30T10:34:38;2.20;99.90
64226;DHT22;50545;56.064;26.178;2024-01-30T10:37:10;2.30;99.90
64226;DHT22;50545;56.064;26.178;2024-01-30T10:39:45;2.30;99.90
64226;DHT22;50545;56.064;26.178;2024-01-30T10:42:15;2.40;99.90
64226;DHT22;50545;56.064;26.178;2024-01-30T10:47:52;2.30;99.90
64226;DHT22;50545;56.064;26.178;2024-01-30T10:50:21;2.30;99.90
64226;DHT22;50545;56.064;26.178;2024-01-30T10:52:50;2.20;99.90
64226;DHT22;50545;56.064;26.178;2024-01-30T10:55:18;2.20;99.90
64226;DHT22;50545;56.064;26.178;2024-01-30T10:57:46;2.10;99.90
64226;DHT22;50545;56.064;26.178;2024-01-30T11:00:14;2.00;99.90
64226;DHT22;50545;56.064;26.178;2024-01-30T11:02:47;2.00;99.90
64226;DHT22;50545;56.064;26.178;2024-01-30T11:05:23;2.00;99.90
64226;DHT22;50545;56.064;26.178;2024-01-30T11:07:59;2.00;99.90
64226;DHT22;50545;56.064;26.178;2024-01-30T11:10:47;2.00;99.90
64226;DHT22;50545;56.064;26.178;2024-01-30T11:13:16;2.00;99.90
64226;DHT22;50545;56.064;26.178;2024-01-30T11:15:43;2.00;99.90
64226;DHT22;50545;56.064;26.178;2024-01-30T11:18:11;2.00;99.90
64226;DHT22;50545;56.064;26.178;2024-01-30T11:20:38;2.00;99.90
64226;DHT22;50545;56.064;26.178;2024-01-30T11:23:14;2.00;99.90
64226;DHT22;50545;56.064;26.178;2024-01-30T11:25:43;1.90;99.90
64226;DHT22;50545;56.064;26.178;2024-01-30T11:28:15;2.00;99.90
64226;DHT22;50545;56.064;26.178;2024-01-30T11:30:43;2.00;99.90
64226;DHT22;50545;56.064;26.178;2024-01-30T11:33:13;2.20;99.90
64226;DHT22;50545;56.064;26.178;2024-01-30T11:35:44;2.30;99.90
64226;DHT22;50545;56.064;26.178;2024-01-30T11:38:14;2.40;99.90
64226;DHT22;50545;56.064;26.178;2024-01-30T11:40:42;2.50;99.90
64226;DHT22;50545;56.064;26.178;2024-01-30T11:43:11;2.60;99.90
64226;DHT22;50545;56.064;26.178;2024-01-30T11:45:39;2.70;99.90
64226;DHT22;50545;56.064;26.178;2024-01-30T11:48:08;2.60;99.90
64226;DHT22;50545;56.064;26.178;2024-01-30T11:50:39;2.60;99.90
64226;DHT22;50545;56.064;26.178;2024-01-30T11:53:07;2.50;99.90
64226;DHT22;50545;56.064;26.178;2024-01-30T11:55:35;2.50;99.90
64226;DHT22;50545;56.064;26.178;2024-01-30T11:58:04;2.50;99.90
64226;DHT22;50545;56.064;26.178;2024-01-30T12:00:33;2.50;99.90
64226;DHT22;50545;56.064;26.178;2024-01-30T12:03:02;2.50;99.90
64226;DHT22;50545;56.064;26.178;2024-01-30T12:05:31;2.40;99.90
64226;DHT22;50545;56.064;26.178;2024-01-30T12:07:59;2.40;99.90
64226;DHT22;50545;56.064;26.178;2024-01-30T12:10:29;2.50;99.90
64226;DHT22;50545;56.064;26.178;2024-01-30T12:12:58;2.50;99.90
64226;DHT22;50545;56.064;26.178;2024-01-30T12:15:26;2.60;99.90
64226;DHT22;50545;56.064;26.178;2024-01-30T12:18:04;2.70;99.90
64226;DHT22;50545;56.064;26.178;2024-01-30T12:20:33;2.70;99.90
64226;DHT22;50545;56.064;26.178;2024-01-30T12:23:00;2.70;99.90
64226;DHT22;50545;56.064;26.178;2024-01-30T12:25:28;2.70;99.90
64226;DHT22;50545;56.064;26.178;2024-01-30T12:27:56;2.70;99.90
64226;DHT22;50545;56.064;26.178;2024-01-30T12:30:25;2.70;99.90
64226;DHT22;50545;56.064;26.178;2024-01-30T12:32:52;2.70;99.90
64226;DHT22;50545;56.064;26.178;2024-01-30T12:35:20;2.80;99.90
64226;DHT22;50545;56.064;26.178;2024-01-30T12:37:49;2.80;99.90
64226;DHT22;50545;56.064;26.178;2024-01-30T12:40:18;2.80;99.90
64226;DHT22;50545;56.064;26.178;2024-01-30T12:42:46;2.70;99.90
64226;DHT22;50545;56.064;26.178;2024-01-30T12:45:17;2.70;99.90
64226;DHT22;50545;56.064;26.178;2024-01-30T12:47:50;2.70;99.90
64226;DHT22;50545;56.064;26.178;2024-01-30T12:50:17;2.60;99.90
64226;DHT22;50545;56.064;26.178;2024-01-30T12:52:46;2.60;99.90
64226;DHT22;50545;56.064;26.178;2024-01-30T12:55:16;2.60;99.90
64226;DHT22;50545;56.064;26.178;2024-01-30T12:57:45;2.60;99.90
64226;DHT22;50545;56.064;26.178;2024-01-30T13:00:13;2.50;99.90
64226;DHT22;50545;56.064;26.178;2024-01-30T13:02:41;2.50;99.90
64226;DHT22;50545;56.064;26.178;2024-01-30T13:05:10;2.50;99.90
64226;DHT22;50545;56.064;26.178;2024-01-30T13:07:38;2.40;99.90
64226;DHT22;50545;56.064;26.178;2024-01-30T13:10:05;2.40;99.90
64226;DHT22;50545;56.064;26.178;2024-01-30T13:12:33;2.30;99.90
64226;DHT22;50545;56.064;26.178;2024-01-30T13:15:01;2.30;99.90
64226;DHT22;50545;56.064;26.178;2024-01-30T13:17:31;2.30;99.90
64226;DHT22;50545;56.064;26.178;2024-01-30T13:19:58;2.30;99.90
64226;DHT22;50545;56.064;26.178;2024-01-30T13:22:37;2.30;99.90
64226;DHT22;50545;56.064;26.178;2024-01-30T13:25:09;2.30;99.90
64226;DHT22;50545;56.064;26.178;2024-01-30T13:27:37;2.30;99.90
64226;DHT22;50545;56.064;26.178;2024-01-30T13:30:07;2.30;99.90
64226;DHT22;50545;56.064;26.178;2024-01-30T13:32:37;2.20;99.90
64226;DHT22;50545;56.064;26.178;2024-01-30T13:35:05;2.20;99.90
64226;DHT22;50545;56.064;26.178;2024-01-30T13:37:33;2.20;99.90
64226;DHT22;50545;56.064;26.178;2024-01-30T13:40:01;2.20;99.90
64226;DHT22;50545;56.064;26.178;2024-01-30T13:42:32;2.20;99.90
64226;DHT22;50545;56.064;26.178;2024-01-30T13:45:00;2.20;99.90
64226;DHT22;50545;56.064;26.178;2024-01-30T13:47:27;2.20;99.90
64226;DHT22;50545;56.064;26.178;2024-01-30T13:49:55;2.20;99.90
64226;DHT22;50545;56.064;26.178;2024-01-30T13:52:22;2.10;99.90
64226;DHT22;50545;56.064;26.178;2024-01-30T13:54:57;2.20;99.90
64226;DHT22;50545;56.064;26.178;2024-01-30T13:57:25;2.20;99.90
64226;DHT22;50545;56.064;26.178;2024-01-30T13:59:53;2.20;99.90
64226;DHT22;50545;56.064;26.178;2024-01-30T14:02:20;2.10;99.90
64226;DHT22;50545;56.064;26.178;2024-01-30T14:04:47;2.10;99.90
64226;DHT22;50545;56.064;26.178;2024-01-30T14:07:15;2.10;99.90
64226;DHT22;50545;56.064;26.178;2024-01-30T14:09:45;2.00;99.90
64226;DHT22;50545;56.064;26.178;2024-01-30T14:12:13;2.00;99.90
64226;DHT22;50545;56.064;26.178;2024-01-30T14:14:40;2.00;99.90
64226;DHT22;50545;56.064;26.178;2024-01-30T14:17:08;1.90;99.90
64226;DHT22;50545;56.064;26.178;2024-01-30T14:19:36;1.90;99.90
64226;DHT22;50545;56.064;26.178;2024-01-30T14:22:04;1.80;99.90
64226;DHT22;50545;56.064;26.178;2024-01-30T14:24:31;1.80;99.90
64226;DHT22;50545;56.064;26.178;2024-01-30T14:26:59;1.80;99.90
64226;DHT22;50545;56.064;26.178;2024-01-30T14:29:27;1.70;99.90
64226;DHT22;50545;56.064;26.178;2024-01-30T14:31:54;1.70;99.90
64226;DHT22;50545;56.064;26.178;2024-01-30T14:34:22;1.70;99.90
64226;DHT22;50545;56.064;26.178;2024-01-30T14:36:50;1.70;99.90
64226;DHT22;50545;56.064;26.178;2024-01-30T14:39:18;1.60;99.90
64226;DHT22;50545;56.064;26.178;2024-01-30T14:41:45;1.60;99.90
64226;DHT22;50545;56.064;26.178;2024-01-30T14:44:13;1.60;99.90
64226;DHT22;50545;56.064;26.178;2024-01-30T14:46:41;1.50;99.90
64226;DHT22;50545;56.064;26.178;2024-01-30T14:49:09;1.50;99.90
64226;DHT22;50545;56.064;26.178;2024-01-30T14:51:37;1.50;99.90
64226;DHT22;50545;56.064;26.178;2024-01-30T14:54:05;1.40;99.90
64226;DHT22;50545;56.064;26.178;2024-01-30T14:56:32;1.40;99.90
64226;DHT22;50545;56.064;26.178;2024-01-30T14:59:00;1.40;99.90
64226;DHT22;50545;56.064;26.178;2024-01-30T15:01:28;1.40;99.90
64226;DHT22;50545;56.064;26.178;2024-01-30T15:03:57;1.30;99.90
64226;DHT22;50545;56.064;26.178;2024-01-30T15:06:25;1.30;99.90
64226;DHT22;50545;56.064;26.178;2024-01-30T15:08:53;1.20;99.90
64226;DHT22;50545;56.064;26.178;2024-01-30T15:11:20;1.20;99.90
64226;DHT22;50545;56.064;26.178;2024-01-30T15:13:48;1.20;99.90
64226;DHT22;50545;56.064;26.178;2024-01-30T15:16:15;1.20;99.90
64226;DHT22;50545;56.064;26.178;2024-01-30T15:18:43;1.20;99.90
64226;DHT22;50545;56.064;26.178;2024-01-30T15:21:11;1.20;99.90
64226;DHT22;50545;56.064;26.178;2024-01-30T15:23:38;1.10;99.90
64226;DHT22;50545;56.064;26.178;2024-01-30T15:26:06;1.10;99.90
64226;DHT22;50545;56.064;26.178;2024-01-30T15:28:35;1.10;99.90
64226;DHT22;50545;56.064;26.178;2024-01-30T15:31:05;1.10;99.90
64226;DHT22;50545;56.064;26.178;2024-01-30T15:33:33;1.00;99.90
64226;DHT22;50545;56.064;26.178;2024-01-30T15:36:01;1.10;99.90
64226;DHT22;50545;56.064;26.178;2024-01-30T15:38:29;1.00;99.90
64226;DHT22;50545;56.064;26.178;2024-01-30T15:40:57;1.00;99.90